sensor_id;sensor_type;location;lat;lon;timestamp;temperature;humidity
9323;DHT22;4700;48.822;9.270;2022-09-12T00:02:08;12.40;1.00
9323;DHT22;4700;48.822;9.270;2022-09-12T00:04:54;12.40;1.00
9323;DHT22;4700;48.822;9.270;2022-09-12T00:07:40;12.40;1.00
9323;DHT22;4700;48.822;9.270;2022-09-12T00:10:26;12.40;1.00
9323;DHT22;4700;48.822;9.270;2022-09-12T00:13:11;12.40;1.00
9323;DHT22;4700;48.822;9.270;2022-09-12T00:15:57;12.40;1.00
9323;DHT22;4700;48.822;9.270;2022-09-12T00:18:43;12.30;1.00
9323;DHT22;4700;48.822;9.270;2022-09-12T00:21:31;12.30;1.00
9323;DHT22;4700;48.822;9.270;2022-09-12T00:24:18;12.30;1.00
9323;DHT22;4700;48.822;9.270;2022-09-12T00:27:04;12.20;1.00
9323;DHT22;4700;48.822;9.270;2022-09-12T00:29:50;12.30;1.00
9323;DHT22;4700;48.822;9.270;2022-09-12T00:32:35;12.20;1.00
9323;DHT22;4700;48.822;9.270;2022-09-12T00:35:21;12.20;1.00
9323;DHT22;4700;48.822;9.270;2022-09-12T00:38:07;12.10;1.00
9323;DHT22;4700;48.822;9.270;2022-09-12T00:40:53;12.10;1.00
9323;DHT22;4700;48.822;9.270;2022-09-12T00:43:41;12.00;1.00
9323;DHT22;4700;48.822;9.270;2022-09-12T00:46:33;12.00;1.00
9323;DHT22;4700;48.822;9.270;2022-09-12T00:49:22;12.00;1.00
9323;DHT22;4700;48.822;9.270;2022-09-12T00:52:10;12.00;1.00
9323;DHT22;4700;48.822;9.270;2022-09-12T00:55:00;12.00;1.00
9323;DHT22;4700;48.822;9.270;2022-09-12T00:57:51;12.00;1.00
9323;DHT22;4700;48.822;9.270;2022-09-12T01:00:38;12.00;1.00
9323;DHT22;4700;48.822;9.270;2022-09-12T01:03:24;11.90;1.00
9323;DHT22;4700;48.822;9.270;2022-09-12T01:06:14;11.90;1.00
9323;DHT22;4700;48.822;9.270;2022-09-12T01:09:00;11.90;1.00
9323;DHT22;4700;48.822;9.270;2022-09-12T01:11:49;11.90;1.00
9323;DHT22;4700;48.822;9.270;2022-09-12T01:14:37;11.90;1.00
9323;DHT22;4700;48.822;9.270;2022-09-12T01:17:27;11.90;1.00
9323;DHT22;4700;48.822;9.270;2022-09-12T01:20:51;11.90;1.00
9323;DHT22;4700;48.822;9.270;2022-09-12T01:27:49;11.90;1.00
9323;DHT22;4700;48.822;9.270;2022-09-12T01:30:48;11.80;1.00
9323;DHT22;4700;48.822;9.270;2022-09-12T01:33:46;11.80;1.00
9323;DHT22;4700;48.822;9.270;2022-09-12T01:36:42;11.70;1.00
9323;DHT22;4700;48.822;9.270;2022-09-12T01:39:32;11.70;1.00
9323;DHT22;4700;48.822;9.270;2022-09-12T01:42:28;11.70;1.00
9323;DHT22;4700;48.822;9.270;2022-09-12T01:45:19;11.70;1.00
9323;DHT22;4700;48.822;9.270;2022-09-12T01:48:13;11.60;1.00
9323;DHT22;4700;48.822;9.270;2022-09-12T01:51:05;11.60;1.00
9323;DHT22;4700;48.822;9.270;2022-09-12T01:53:54;11.60;1.00
9323;DHT22;4700;48.822;9.270;2022-09-12T01:56:43;11.60;1.00
9323;DHT22;4700;48.822;9.270;2022-09-12T01:59:33;11.80;1.00
9323;DHT22;4700;48.822;9.270;2022-09-12T02:02:22;11.80;1.00
9323;DHT22;4700;48.822;9.270;2022-09-12T02:05:16;11.80;1.00
9323;DHT22;4700;48.822;9.270;2022-09-12T02:08:07;11.80;1.00
9323;DHT22;4700;48.822;9.270;2022-09-12T02:10:55;11.80;1.00
9323;DHT22;4700;48.822;9.270;2022-09-12T02:13:45;11.80;1.00
9323;DHT22;4700;48.822;9.270;2022-09-12T02:16:35;11.70;1.00
9323;DHT22;4700;48.822;9.270;2022-09-12T02:19:23;11.70;1.00
9323;DHT22;4700;48.822;9.270;2022-09-12T02:22:16;11.60;1.00
9323;DHT22;4700;48.822;9.270;2022-09-12T02:25:02;11.60;1.00
9323;DHT22;4700;48.822;9.270;2022-09-12T02:27:52;11.50;1.00
9323;DHT22;4700;48.822;9.270;2022-09-12T02:30:42;11.50;1.00
9323;DHT22;4700;48.822;9.270;2022-09-12T02:33:32;11.50;1.00
9323;DHT22;4700;48.822;9.270;2022-09-12T02:36:33;11.40;1.00
9323;DHT22;4700;48.822;9.270;2022-09-12T02:39:24;11.40;1.00
9323;DHT22;4700;48.822;9.270;2022-09-12T02:42:10;11.40;1.00
9323;DHT22;4700;48.822;9.270;2022-09-12T02:44:56;11.40;1.00
9323;DHT22;4700;48.822;9.270;2022-09-12T02:47:45;11.30;1.00
9323;DHT22;4700;48.822;9.270;2022-09-12T02:50:32;11.30;1.00
9323;DHT22;4700;48.822;9.270;2022-09-12T02:53:18;11.20;1.00
9323;DHT22;4700;48.822;9.270;2022-09-12T02:56:15;11.20;1.00
9323;DHT22;4700;48.822;9.270;2022-09-12T02:59:05;11.20;1.00
9323;DHT22;4700;48.822;9.270;2022-09-12T03:02:06;11.10;1.00
9323;DHT22;4700;48.822;9.270;2022-09-12T03:08:18;11.00;1.00
9323;DHT22;4700;48.822;9.270;2022-09-12T03:14:24;11.00;1.00
9323;DHT22;4700;48.822;9.270;2022-09-12T03:17:23;11.00;1.00
9323;DHT22;4700;48.822;9.270;2022-09-12T03:20:14;11.00;1.00
9323;DHT22;4700;48.822;9.270;2022-09-12T03:23:04;10.90;1.00
9323;DHT22;4700;48.822;9.270;2022-09-12T03:25:58;10.90;1.00
9323;DHT22;4700;48.822;9.270;2022-09-12T03:28:48;10.90;1.00
9323;DHT22;4700;48.822;9.270;2022-09-12T03:31:35;10.90;1.00
9323;DHT22;4700;48.822;9.270;2022-09-12T03:34:24;10.90;1.00
9323;DHT22;4700;48.822;9.270;2022-09-12T03:37:10;10.90;1.00
9323;DHT22;4700;48.822;9.270;2022-09-12T03:39:55;10.90;1.00
9323;DHT22;4700;48.822;9.270;2022-09-12T03:42:42;10.90;1.00
9323;DHT22;4700;48.822;9.270;2022-09-12T03:45:30;10.90;1.00
9323;DHT22;4700;48.822;9.270;2022-09-12T03:48:15;10.90;1.00
9323;DHT22;4700;48.822;9.270;2022-09-12T03:51:02;10.90;1.00
9323;DHT22;4700;48.822;9.270;2022-09-12T03:53:48;10.90;1.00
9323;DHT22;4700;48.822;9.270;2022-09-12T03:56:33;10.80;1.00
9323;DHT22;4700;48.822;9.270;2022-09-12T03:59:20;10.80;1.00
9323;DHT22;4700;48.822;9.270;2022-09-12T04:02:07;10.70;1.00
9323;DHT22;4700;48.822;9.270;2022-09-12T04:04:57;10.70;1.00
9323;DHT22;4700;48.822;9.270;2022-09-12T04:07:45;10.70;1.00
9323;DHT22;4700;48.822;9.270;2022-09-12T04:10:31;10.70;1.00
9323;DHT22;4700;48.822;9.270;2022-09-12T04:13:17;10.70;1.00
9323;DHT22;4700;48.822;9.270;2022-09-12T04:16:04;10.70;1.00
9323;DHT22;4700;48.822;9.270;2022-09-12T04:18:52;10.60;1.00
9323;DHT22;4700;48.822;9.270;2022-09-12T04:21:38;10.60;1.00
9323;DHT22;4700;48.822;9.270;2022-09-12T04:24:24;10.60;1.00
9323;DHT22;4700;48.822;9.270;2022-09-12T04:27:10;10.60;1.00
9323;DHT22;4700;48.822;9.270;2022-09-12T04:29:56;10.60;1.00
9323;DHT22;4700;48.822;9.270;2022-09-12T04:32:43;10.60;1.00
9323;DHT22;4700;48.822;9.270;2022-09-12T04:35:30;10.70;1.00
9323;DHT22;4700;48.822;9.270;2022-09-12T04:38:18;10.70;1.00
9323;DHT22;4700;48.822;9.270;2022-09-12T04:41:10;10.70;1.00
9323;DHT22;4700;48.822;9.270;2022-09-12T04:43:57;10.60;1.00
9323;DHT22;4700;48.822;9.270;2022-09-12T04:46:45;10.70;1.00
9323;DHT22;4700;48.822;9.270;2022-09-12T04:49:31;10.70;1.00
9323;DHT22;4700;48.822;9.270;2022-09-12T04:52:19;10.70;1.00
9323;DHT22;4700;48.822;9.270;2022-09-12T04:55:06;10.70;1.00
9323;DHT22;4700;48.822;9.270;2022-09-12T04:57:51;10.60;1.00
9323;DHT22;4700;48.822;9.270;2022-09-12T05:00:37;10.70;1.00
9323;DHT22;4700;48.822;9.270;2022-09-12T05:03:22;10.70;1.00
9323;DHT22;4700;48.822;9.270;2022-09-12T05:06:10;10.70;1.00
9323;DHT22;4700;48.822;9.270;2022-09-12T05:08:57;10.70;1.00
9323;DHT22;4700;48.822;9.270;2022-09-12T05:11:44;10.70;1.00
9323;DHT22;4700;48.822;9.270;2022-09-12T05:14:29;10.60;1.00
9323;DHT22;4700;48.822;9.270;2022-09-12T05:17:16;10.60;1.00
9323;DHT22;4700;48.822;9.270;2022-09-12T05:20:02;10.60;1.00
9323;DHT22;4700;48.822;9.270;2022-09-12T05:22:47;10.60;1.00
9323;DHT22;4700;48.822;9.270;2022-09-12T05:25:35;10.50;1.00
9323;DHT22;4700;48.822;9.270;2022-09-12T05:28:23;10.50;1.00
9323;DHT22;4700;48.822;9.270;2022-09-12T05:31:11;10.50;1.00
9323;DHT22;4700;48.822;9.270;2022-09-12T05:33:57;10.40;1.00
9323;DHT22;4700;48.822;9.270;2022-09-12T05:36:42;10.40;1.00
9323;DHT22;4700;48.822;9.270;2022-09-12T05:39:28;10.50;1.00
9323;DHT22;4700;48.822;9.270;2022-09-12T05:42:15;10.50;1.00
9323;DHT22;4700;48.822;9.270;2022-09-12T05:45:01;10.50;1.00
9323;DHT22;4700;48.822;9.270;2022-09-12T05:47:47;10.50;1.00
9323;DHT22;4700;48.822;9.270;2022-09-12T05:50:33;10.50;1.00
9323;DHT22;4700;48.822;9.270;2022-09-12T05:53:18;10.50;1.00
9323;DHT22;4700;48.822;9.270;2022-09-12T05:56:06;10.50;1.00
9323;DHT22;4700;48.822;9.270;2022-09-12T05:58:55;10.60;1.00
9323;DHT22;4700;48.822;9.270;2022-09-12T06:01:41;10.60;1.00
9323;DHT22;4700;48.822;9.270;2022-09-12T06:04:28;10.70;1.00
9323;DHT22;4700;48.822;9.270;2022-09-12T06:07:16;10.80;1.00
9323;DHT22;4700;48.822;9.270;2022-09-12T06:10:02;11.00;1.00
9323;DHT22;4700;48.822;9.270;2022-09-12T06:12:48;11.20;1.00
9323;DHT22;4700;48.822;9.270;2022-09-12T06:15:36;11.30;1.00
9323;DHT22;4700;48.822;9.270;2022-09-12T06:18:21;11.40;1.00
9323;DHT22;4700;48.822;9.270;2022-09-12T06:21:08;11.50;1.00
9323;DHT22;4700;48.822;9.270;2022-09-12T06:23:57;11.60;1.00
9323;DHT22;4700;48.822;9.270;2022-09-12T06:26:43;11.60;1.00
9323;DHT22;4700;48.822;9.270;2022-09-12T06:29:29;11.80;1.00
9323;DHT22;4700;48.822;9.270;2022-09-12T06:32:17;12.00;1.00
9323;DHT22;4700;48.822;9.270;2022-09-12T06:35:02;12.10;1.00
9323;DHT22;4700;48.822;9.270;2022-09-12T06:37:49;12.30;1.00
9323;DHT22;4700;48.822;9.270;2022-09-12T06:40:41;12.50;1.00
9323;DHT22;4700;48.822;9.270;2022-09-12T06:43:28;12.70;1.00
9323;DHT22;4700;48.822;9.270;2022-09-12T06:46:10;12.80;1.00
9323;DHT22;4700;48.822;9.270;2022-09-12T06:48:59;13.00;1.00
9323;DHT22;4700;48.822;9.270;2022-09-12T06:51:45;13.10;1.00
9323;DHT22;4700;48.822;9.270;2022-09-12T06:54:34;13.30;1.00
9323;DHT22;4700;48.822;9.270;2022-09-12T06:57:19;13.50;1.00
9323;DHT22;4700;48.822;9.270;2022-09-12T07:00:06;13.80;1.00
9323;DHT22;4700;48.822;9.270;2022-09-12T07:02:53;14.00;1.00
9323;DHT22;4700;48.822;9.270;2022-09-12T07:05:41;14.60;1.00
9323;DHT22;4700;48.822;9.270;2022-09-12T07:08:27;16.60;1.00
9323;DHT22;4700;48.822;9.270;2022-09-12T07:11:17;20.40;1.00
9323;DHT22;4700;48.822;9.270;2022-09-12T07:14:04;24.50;1.00
9323;DHT22;4700;48.822;9.270;2022-09-12T07:16:51;27.40;1.00
9323;DHT22;4700;48.822;9.270;2022-09-12T07:19:37;29.60;1.00
9323;DHT22;4700;48.822;9.270;2022-09-12T07:22:24;31.80;1.00
9323;DHT22;4700;48.822;9.270;2022-09-12T07:25:09;33.30;1.00
9323;DHT22;4700;48.822;9.270;2022-09-12T07:27:55;34.60;1.00
9323;DHT22;4700;48.822;9.270;2022-09-12T07:30:41;35.00;1.00
9323;DHT22;4700;48.822;9.270;2022-09-12T07:33:27;35.10;1.00
9323;DHT22;4700;48.822;9.270;2022-09-12T07:36:14;34.40;1.00
9323;DHT22;4700;48.822;9.270;2022-09-12T07:39:02;35.40;1.00
9323;DHT22;4700;48.822;9.270;2022-09-12T07:41:48;36.10;1.00
9323;DHT22;4700;48.822;9.270;2022-09-12T07:44:35;36.60;1.00
9323;DHT22;4700;48.822;9.270;2022-09-12T07:47:22;36.40;1.00
9323;DHT22;4700;48.822;9.270;2022-09-12T07:50:08;36.70;1.00
9323;DHT22;4700;48.822;9.270;2022-09-12T07:52:57;37.00;1.00
9323;DHT22;4700;48.822;9.270;2022-09-12T07:55:54;38.00;1.00
9323;DHT22;4700;48.822;9.270;2022-09-12T07:58:41;38.80;1.00
9323;DHT22;4700;48.822;9.270;2022-09-12T08:01:27;39.60;1.00
9323;DHT22;4700;48.822;9.270;2022-09-12T08:04:20;39.90;1.00
9323;DHT22;4700;48.822;9.270;2022-09-12T08:07:18;37.00;1.00
9323;DHT22;4700;48.822;9.270;2022-09-12T08:10:06;35.20;1.00
9323;DHT22;4700;48.822;9.270;2022-09-12T08:12:55;34.00;1.00
9323;DHT22;4700;48.822;9.270;2022-09-12T08:15:44;34.90;1.00
9323;DHT22;4700;48.822;9.270;2022-09-12T08:18:38;34.30;1.00
9323;DHT22;4700;48.822;9.270;2022-09-12T08:21:29;36.70;1.00
9323;DHT22;4700;48.822;9.270;2022-09-12T08:24:16;37.50;1.00
9323;DHT22;4700;48.822;9.270;2022-09-12T08:27:02;38.10;1.00
9323;DHT22;4700;48.822;9.270;2022-09-12T08:29:49;35.60;1.00
9323;DHT22;4700;48.822;9.270;2022-09-12T08:32:36;36.70;1.00
9323;DHT22;4700;48.822;9.270;2022-09-12T08:35:22;36.60;1.00
9323;DHT22;4700;48.822;9.270;2022-09-12T08:38:08;33.50;1.00
9323;DHT22;4700;48.822;9.270;2022-09-12T08:41:00;33.30;1.00
9323;DHT22;4700;48.822;9.270;2022-09-12T08:44:00;31.40;1.00
9323;DHT22;4700;48.822;9.270;2022-09-12T08:46:39;33.90;1.00
9323;DHT22;4700;48.822;9.270;2022-09-12T08:49:33;35.30;1.00
9323;DHT22;4700;48.822;9.270;2022-09-12T08:52:26;36.60;1.00
9323;DHT22;4700;48.822;9.270;2022-09-12T08:55:24;33.70;1.00
9323;DHT22;4700;48.822;9.270;2022-09-12T08:58:13;31.90;1.00
9323;DHT22;4700;48.822;9.270;2022-09-12T09:01:04;34.00;1.00
9323;DHT22;4700;48.822;9.270;2022-09-12T09:10:42;33.20;1.00
9323;DHT22;4700;48.822;9.270;2022-09-12T09:13:41;36.60;1.00
9323;DHT22;4700;48.822;9.270;2022-09-12T09:16:53;39.40;1.00
9323;DHT22;4700;48.822;9.270;2022-09-12T09:19:45;38.60;1.00
9323;DHT22;4700;48.822;9.270;2022-09-12T09:22:40;39.20;1.00
9323;DHT22;4700;48.822;9.270;2022-09-12T09:25:39;39.20;1.00
9323;DHT22;4700;48.822;9.270;2022-09-12T09:28:33;39.90;1.00
9323;DHT22;4700;48.822;9.270;2022-09-12T09:31:22;41.40;1.00
9323;DHT22;4700;48.822;9.270;2022-09-12T09:34:13;38.00;1.00
9323;DHT22;4700;48.822;9.270;2022-09-12T09:37:07;40.00;1.00
9323;DHT22;4700;48.822;9.270;2022-09-12T09:40:02;41.70;1.00
9323;DHT22;4700;48.822;9.270;2022-09-12T09:42:59;42.40;1.00
9323;DHT22;4700;48.822;9.270;2022-09-12T09:45:47;43.00;1.00
9323;DHT22;4700;48.822;9.270;2022-09-12T09:48:36;43.70;1.00
9323;DHT22;4700;48.822;9.270;2022-09-12T09:51:25;39.40;1.00
9323;DHT22;4700;48.822;9.270;2022-09-12T09:54:19;36.70;1.00
9323;DHT22;4700;48.822;9.270;2022-09-12T09:57:37;33.60;1.00
9323;DHT22;4700;48.822;9.270;2022-09-12T10:00:27;32.70;1.00
9323;DHT22;4700;48.822;9.270;2022-09-12T10:03:36;30.30;1.00
9323;DHT22;4700;48.822;9.270;2022-09-12T10:06:29;28.10;1.00
9323;DHT22;4700;48.822;9.270;2022-09-12T10:09:22;27.60;1.00
9323;DHT22;4700;48.822;9.270;2022-09-12T10:12:23;27.50;1.00
9323;DHT22;4700;48.822;9.270;2022-09-12T10:15:16;26.00;1.00
9323;DHT22;4700;48.822;9.270;2022-09-12T10:18:05;25.00;1.00
9323;DHT22;4700;48.822;9.270;2022-09-12T10:20:51;24.60;1.00
9323;DHT22;4700;48.822;9.270;2022-09-12T10:23:38;24.80;1.00
9323;DHT22;4700;48.822;9.270;2022-09-12T10:26:32;25.30;1.00
9323;DHT22;4700;48.822;9.270;2022-09-12T10:29:28;25.30;1.00
9323;DHT22;4700;48.822;9.270;2022-09-12T10:32:24;25.60;1.00
9323;DHT22;4700;48.822;9.270;2022-09-12T10:35:17;25.70;1.00
9323;DHT22;4700;48.822;9.270;2022-09-12T10:38:14;25.20;1.00
9323;DHT22;4700;48.822;9.270;2022-09-12T10:41:09;24.70;1.00
9323;DHT22;4700;48.822;9.270;2022-09-12T10:44:05;24.30;1.00
9323;DHT22;4700;48.822;9.270;2022-09-12T10:46:53;24.50;1.00
9323;DHT22;4700;48.822;9.270;2022-09-12T10:49:39;24.50;1.00
9323;DHT22;4700;48.822;9.270;2022-09-12T10:52:25;24.40;1.00
9323;DHT22;4700;48.822;9.270;2022-09-12T10:55:15;24.40;1.00
9323;DHT22;4700;48.822;9.270;2022-09-12T10:58:17;24.30;1.00
9323;DHT22;4700;48.822;9.270;2022-09-12T11:01:17;24.00;1.00
9323;DHT22;4700;48.822;9.270;2022-09-12T11:04:23;24.20;1.00
9323;DHT22;4700;48.822;9.270;2022-09-12T11:07:28;24.00;1.00
9323;DHT22;4700;48.822;9.270;2022-09-12T11:10:33;23.90;1.00
9323;DHT22;4700;48.822;9.270;2022-09-12T11:13:33;23.80;1.00
9323;DHT22;4700;48.822;9.270;2022-09-12T11:16:31;23.60;1.00
9323;DHT22;4700;48.822;9.270;2022-09-12T11:23:02;24.30;1.00
9323;DHT22;4700;48.822;9.270;2022-09-12T11:25:56;23.90;1.00
9323;DHT22;4700;48.822;9.270;2022-09-12T11:28:54;23.90;1.00
9323;DHT22;4700;48.822;9.270;2022-09-12T11:32:06;24.00;1.00
9323;DHT22;4700;48.822;9.270;2022-09-12T11:34:59;24.10;1.00
9323;DHT22;4700;48.822;9.270;2022-09-12T11:40:58;23.60;1.00
9323;DHT22;4700;48.822;9.270;2022-09-12T11:43:48;23.90;1.00
9323;DHT22;4700;48.822;9.270;2022-09-12T11:46:36;24.20;1.00
9323;DHT22;4700;48.822;9.270;2022-09-12T11:49:30;24.10;1.00
9323;DHT22;4700;48.822;9.270;2022-09-12T11:52:22;24.10;1.00
9323;DHT22;4700;48.822;9.270;2022-09-12T11:55:15;23.80;1.00
9323;DHT22;4700;48.822;9.270;2022-09-12T11:58:01;23.80;1.00
9323;DHT22;4700;48.822;9.270;2022-09-12T12:00:50;23.80;1.00
9323;DHT22;4700;48.822;9.270;2022-09-12T12:03:40;23.90;1.00
9323;DHT22;4700;48.822;9.270;2022-09-12T12:06:32;24.10;1.00
9323;DHT22;4700;48.822;9.270;2022-09-12T12:09:21;24.10;1.00
9323;DHT22;4700;48.822;9.270;2022-09-12T12:12:10;24.30;1.00
9323;DHT22;4700;48.822;9.270;2022-09-12T12:15:00;24.50;1.00
9323;DHT22;4700;48.822;9.270;2022-09-12T12:17:59;23.80;1.00
9323;DHT22;4700;48.822;9.270;2022-09-12T12:20:46;23.70;1.00
9323;DHT22;4700;48.822;9.270;2022-09-12T12:23:34;23.80;1.00
9323;DHT22;4700;48.822;9.270;2022-09-12T12:26:53;24.00;1.00
9323;DHT22;4700;48.822;9.270;2022-09-12T12:29:41;24.10;1.00
9323;DHT22;4700;48.822;9.270;2022-09-12T12:32:27;24.40;1.00
9323;DHT22;4700;48.822;9.270;2022-09-12T12:35:38;24.50;1.00
9323;DHT22;4700;48.822;9.270;2022-09-12T12:38:31;24.50;1.00
9323;DHT22;4700;48.822;9.270;2022-09-12T12:41:48;24.50;1.00
9323;DHT22;4700;48.822;9.270;2022-09-12T12:47:19;24.30;1.00
9323;DHT22;4700;48.822;9.270;2022-09-12T12:50:11;24.20;1.00
9323;DHT22;4700;48.822;9.270;2022-09-12T12:52:59;24.20;1.00
9323;DHT22;4700;48.822;9.270;2022-09-12T12:55:48;24.30;1.00
9323;DHT22;4700;48.822;9.270;2022-09-12T12:58:37;24.40;1.00
9323;DHT22;4700;48.822;9.270;2022-09-12T13:01:24;24.50;1.00
9323;DHT22;4700;48.822;9.270;2022-09-12T13:04:14;24.50;1.00
9323;DHT22;4700;48.822;9.270;2022-09-12T13:07:02;24.50;1.00
9323;DHT22;4700;48.822;9.270;2022-09-12T13:09:50;24.50;1.00
9323;DHT22;4700;48.822;9.270;2022-09-12T13:12:43;24.40;1.00
9323;DHT22;4700;48.822;9.270;2022-09-12T13:15:51;24.30;1.00
9323;DHT22;4700;48.822;9.270;2022-09-12T13:18:41;24.20;1.00
9323;DHT22;4700;48.822;9.270;2022-09-12T13:21:27;24.30;1.00
9323;DHT22;4700;48.822;9.270;2022-09-12T13:24:14;24.40;1.00
9323;DHT22;4700;48.822;9.270;2022-09-12T13:27:02;24.30;1.00
9323;DHT22;4700;48.822;9.270;2022-09-12T13:29:48;24.30;1.00
9323;DHT22;4700;48.822;9.270;2022-09-12T13:32:36;24.20;1.00
9323;DHT22;4700;48.822;9.270;2022-09-12T13:35:27;24.00;1.00
9323;DHT22;4700;48.822;9.270;2022-09-12T13:38:24;24.00;1.00
9323;DHT22;4700;48.822;9.270;2022-09-12T13:41:27;24.00;1.00
9323;DHT22;4700;48.822;9.270;2022-09-12T13:44:19;24.00;1.00
9323;DHT22;4700;48.822;9.270;2022-09-12T13:47:09;24.20;1.00
9323;DHT22;4700;48.822;9.270;2022-09-12T13:49:59;24.40;1.00
9323;DHT22;4700;48.822;9.270;2022-09-12T13:52:49;24.50;1.00
9323;DHT22;4700;48.822;9.270;2022-09-12T13:55:39;24.60;1.00
9323;DHT22;4700;48.822;9.270;2022-09-12T13:58:28;24.70;1.00
9323;DHT22;4700;48.822;9.270;2022-09-12T14:01:15;24.80;1.00
9323;DHT22;4700;48.822;9.270;2022-09-12T14:04:07;24.90;1.00
9323;DHT22;4700;48.822;9.270;2022-09-12T14:07:16;24.90;1.00
9323;DHT22;4700;48.822;9.270;2022-09-12T14:10:04;24.90;1.00
9323;DHT22;4700;48.822;9.270;2022-09-12T14:12:50;24.90;1.00
9323;DHT22;4700;48.822;9.270;2022-09-12T14:15:36;24.80;1.00
9323;DHT22;4700;48.822;9.270;2022-09-12T14:18:25;24.70;1.00
9323;DHT22;4700;48.822;9.270;2022-09-12T14:21:25;24.80;1.00
9323;DHT22;4700;48.822;9.270;2022-09-12T14:24:16;25.00;1.00
9323;DHT22;4700;48.822;9.270;2022-09-12T14:27:05;25.00;1.00
9323;DHT22;4700;48.822;9.270;2022-09-12T14:29:56;25.10;1.00
9323;DHT22;4700;48.822;9.270;2022-09-12T14:33:01;25.10;1.00
9323;DHT22;4700;48.822;9.270;2022-09-12T14:35:49;25.20;1.00
9323;DHT22;4700;48.822;9.270;2022-09-12T14:38:41;25.20;1.00
9323;DHT22;4700;48.822;9.270;2022-09-12T14:41:30;25.20;1.00
9323;DHT22;4700;48.822;9.270;2022-09-12T14:44:20;25.20;1.00
9323;DHT22;4700;48.822;9.270;2022-09-12T14:47:13;25.20;1.00
9323;DHT22;4700;48.822;9.270;2022-09-12T14:50:03;25.30;1.00
9323;DHT22;4700;48.822;9.270;2022-09-12T14:53:05;25.60;1.00
9323;DHT22;4700;48.822;9.270;2022-09-12T14:55:52;25.70;1.00
9323;DHT22;4700;48.822;9.270;2022-09-12T14:58:43;25.80;1.00
9323;DHT22;4700;48.822;9.270;2022-09-12T15:01:29;25.80;1.00
9323;DHT22;4700;48.822;9.270;2022-09-12T15:04:39;25.60;1.00
9323;DHT22;4700;48.822;9.270;2022-09-12T15:07:31;25.60;1.00
9323;DHT22;4700;48.822;9.270;2022-09-12T15:10:20;25.70;1.00
9323;DHT22;4700;48.822;9.270;2022-09-12T15:13:19;25.70;1.00
9323;DHT22;4700;48.822;9.270;2022-09-12T15:16:10;25.70;1.00
9323;DHT22;4700;48.822;9.270;2022-09-12T15:18:58;25.60;1.00
9323;DHT22;4700;48.822;9.270;2022-09-12T15:21:44;25.70;1.00
9323;DHT22;4700;48.822;9.270;2022-09-12T15:24:32;25.80;1.00
9323;DHT22;4700;48.822;9.270;2022-09-12T15:27:17;25.90;1.00
9323;DHT22;4700;48.822;9.270;2022-09-12T15:30:04;26.00;1.00
9323;DHT22;4700;48.822;9.270;2022-09-12T15:32:51;26.10;1.00
9323;DHT22;4700;48.822;9.270;2022-09-12T15:35:38;26.10;1.00
9323;DHT22;4700;48.822;9.270;2022-09-12T15:38:26;26.10;1.00
9323;DHT22;4700;48.822;9.270;2022-09-12T15:41:14;26.10;1.00
9323;DHT22;4700;48.822;9.270;2022-09-12T15:44:02;26.10;1.00
9323;DHT22;4700;48.822;9.270;2022-09-12T15:46:48;25.90;1.00
9323;DHT22;4700;48.822;9.270;2022-09-12T15:49:35;25.90;1.00
9323;DHT22;4700;48.822;9.270;2022-09-12T15:52:21;25.90;1.00
9323;DHT22;4700;48.822;9.270;2022-09-12T15:55:12;25.80;1.00
9323;DHT22;4700;48.822;9.270;2022-09-12T15:57:59;25.70;1.00
9323;DHT22;4700;48.822;9.270;2022-09-12T16:00:45;25.40;1.00
9323;DHT22;4700;48.822;9.270;2022-09-12T16:03:33;25.00;1.00
9323;DHT22;4700;48.822;9.270;2022-09-12T16:06:20;25.10;1.00
9323;DHT22;4700;48.822;9.270;2022-09-12T16:09:06;25.00;1.00
9323;DHT22;4700;48.822;9.270;2022-09-12T16:11:55;24.60;1.00
9323;DHT22;4700;48.822;9.270;2022-09-12T16:14:41;24.40;1.00
9323;DHT22;4700;48.822;9.270;2022-09-12T16:17:27;24.20;1.00
9323;DHT22;4700;48.822;9.270;2022-09-12T16:20:13;24.00;1.00
9323;DHT22;4700;48.822;9.270;2022-09-12T16:23:01;23.80;1.00
9323;DHT22;4700;48.822;9.270;2022-09-12T16:25:55;23.80;1.00
9323;DHT22;4700;48.822;9.270;2022-09-12T16:28:41;23.70;1.00
9323;DHT22;4700;48.822;9.270;2022-09-12T16:31:27;23.60;1.00
9323;DHT22;4700;48.822;9.270;2022-09-12T16:34:14;23.50;1.00
9323;DHT22;4700;48.822;9.270;2022-09-12T16:37:00;23.40;1.00
9323;DHT22;4700;48.822;9.270;2022-09-12T16:39:47;23.30;1.00
9323;DHT22;4700;48.822;9.270;2022-09-12T16:42:33;23.30;1.00
9323;DHT22;4700;48.822;9.270;2022-09-12T16:45:19;23.20;1.00
9323;DHT22;4700;48.822;9.270;2022-09-12T16:48:01;23.10;1.00
9323;DHT22;4700;48.822;9.270;2022-09-12T16:50:55;23.10;1.00
9323;DHT22;4700;48.822;9.270;2022-09-12T16:53:42;22.90;1.00
9323;DHT22;4700;48.822;9.270;2022-09-12T16:56:29;22.80;1.00
9323;DHT22;4700;48.822;9.270;2022-09-12T16:59:14;22.70;1.00
9323;DHT22;4700;48.822;9.270;2022-09-12T17:02:00;22.60;1.00
9323;DHT22;4700;48.822;9.270;2022-09-12T17:04:46;22.60;1.00
9323;DHT22;4700;48.822;9.270;2022-09-12T17:07:32;22.50;1.00
9323;DHT22;4700;48.822;9.270;2022-09-12T17:10:18;22.40;1.00
9323;DHT22;4700;48.822;9.270;2022-09-12T17:13:05;22.40;1.00
9323;DHT22;4700;48.822;9.270;2022-09-12T17:15:51;22.30;1.00
9323;DHT22;4700;48.822;9.270;2022-09-12T17:18:36;22.30;1.00
9323;DHT22;4700;48.822;9.270;2022-09-12T17:21:22;22.30;1.00
9323;DHT22;4700;48.822;9.270;2022-09-12T17:24:08;22.10;1.00
9323;DHT22;4700;48.822;9.270;2022-09-12T17:26:55;22.00;1.00
9323;DHT22;4700;48.822;9.270;2022-09-12T17:29:43;21.80;1.00
9323;DHT22;4700;48.822;9.270;2022-09-12T17:32:29;21.70;1.00
9323;DHT22;4700;48.822;9.270;2022-09-12T17:35:15;21.60;1.00
9323;DHT22;4700;48.822;9.270;2022-09-12T17:38:01;21.60;1.00
9323;DHT22;4700;48.822;9.270;2022-09-12T17:40:46;21.60;1.00
9323;DHT22;4700;48.822;9.270;2022-09-12T17:43:32;21.50;1.00
9323;DHT22;4700;48.822;9.270;2022-09-12T17:46:20;21.50;1.00
9323;DHT22;4700;48.822;9.270;2022-09-12T17:49:07;21.50;1.00
9323;DHT22;4700;48.822;9.270;2022-09-12T17:51:53;21.40;1.00
9323;DHT22;4700;48.822;9.270;2022-09-12T17:54:39;21.30;1.00
9323;DHT22;4700;48.822;9.270;2022-09-12T17:57:24;21.20;1.00
9323;DHT22;4700;48.822;9.270;2022-09-12T18:00:11;21.00;1.00
9323;DHT22;4700;48.822;9.270;2022-09-12T18:02:58;20.90;1.00
9323;DHT22;4700;48.822;9.270;2022-09-12T18:05:46;20.70;1.00
9323;DHT22;4700;48.822;9.270;2022-09-12T18:08:32;20.60;1.00
9323;DHT22;4700;48.822;9.270;2022-09-12T18:11:17;20.50;1.00
9323;DHT22;4700;48.822;9.270;2022-09-12T18:14:03;20.50;1.00
9323;DHT22;4700;48.822;9.270;2022-09-12T18:16:49;20.40;1.00
9323;DHT22;4700;48.822;9.270;2022-09-12T18:19:41;20.40;1.00
9323;DHT22;4700;48.822;9.270;2022-09-12T18:22:27;20.40;1.00
9323;DHT22;4700;48.822;9.270;2022-09-12T18:25:13;20.40;1.00
9323;DHT22;4700;48.822;9.270;2022-09-12T18:27:59;20.40;1.00
9323;DHT22;4700;48.822;9.270;2022-09-12T18:30:44;20.40;1.00
9323;DHT22;4700;48.822;9.270;2022-09-12T18:33:30;20.40;1.00
9323;DHT22;4700;48.822;9.270;2022-09-12T18:36:18;20.40;1.00
9323;DHT22;4700;48.822;9.270;2022-09-12T18:39:04;20.40;1.00
9323;DHT22;4700;48.822;9.270;2022-09-12T18:41:51;20.30;1.00
9323;DHT22;4700;48.822;9.270;2022-09-12T18:44:37;20.20;1.00
9323;DHT22;4700;48.822;9.270;2022-09-12T18:47:23;20.00;1.00
9323;DHT22;4700;48.822;9.270;2022-09-12T18:50:09;19.90;1.00
9323;DHT22;4700;48.822;9.270;2022-09-12T18:52:56;19.70;1.00
9323;DHT22;4700;48.822;9.270;2022-09-12T18:55:41;19.60;1.00
9323;DHT22;4700;48.822;9.270;2022-09-12T18:58:27;19.50;1.00
9323;DHT22;4700;48.822;9.270;2022-09-12T19:01:15;19.50;1.00
9323;DHT22;4700;48.822;9.270;2022-09-12T19:04:02;19.40;1.00
9323;DHT22;4700;48.822;9.270;2022-09-12T19:06:49;19.40;1.00
9323;DHT22;4700;48.822;9.270;2022-09-12T19:09:36;19.40;1.00
9323;DHT22;4700;48.822;9.270;2022-09-12T19:12:24;19.30;1.00